Nemo — FL5940 — position and weather

sailwx.info

Track history (hours):
 
Tides and Currents Weather Stations Pressure Air Temp Water Temp Dewpoint Dewpoint Depression Visibility Wind Speed Wind Dir Waves Ship Positions

Nemo

Last reported at 2018-Jun-21 10:03 UTC. Time now 2018-Jun-22 16:47 UTC.
Position N 54°38' W 008°26'.

Length 10 m.

Type: Pleasure craft. MMSI: 227530580.

Date/timePositionNaut miles runAvg speedWind from/ knotsBaromVisibWave heightAir tempDewpointWater temp
2018-Jun-21 10:03N 54°38' W 008°26'1 2.5
2018-Jun-21 09:48N 54°38' W 008°27'0 0.0
2018-Jun-21 09:18N 54°38' W 008°27'0 0.0
2018-Jun-21 08:48N 54°38' W 008°27'0 0.0
2018-Jun-21 08:30N 54°38' W 008°27'0 0.0
2018-Jun-21 08:00N 54°38' W 008°27'0 0.1
2018-Jun-21 07:29N 54°38' W 008°27'0 0.0
2018-Jun-21 06:59N 54°38' W 008°27'0 0.0
2018-Jun-21 06:29N 54°38' W 008°27'0 0.0
2018-Jun-21 05:59N 54°38' W 008°27'0 0.0
2018-Jun-21 05:24N 54°38' W 008°27'0 0.0
2018-Jun-21 04:59N 54°38' W 008°27'0 0.0
2018-Jun-21 04:29N 54°38' W 008°27'0 0.0
2018-Jun-21 03:41N 54°38' W 008°27'0 0.0
2018-Jun-21 03:29N 54°38' W 008°27'0 0.0
2018-Jun-21 02:53N 54°38' W 008°27'0 0.0
2018-Jun-21 02:29N 54°38' W 008°27'0 0.0
2018-Jun-21 01:59N 54°38' W 008°27'0 0.0
2018-Jun-21 01:29N 54°38' W 008°27'0 0.0
2018-Jun-21 00:53N 54°38' W 008°27'0 0.0
2018-Jun-21 00:17N 54°38' W 008°27'0 0.0
2018-Jun-20 23:41N 54°38' W 008°27'0 0.0
2018-Jun-20 23:17N 54°38' W 008°27'0 0.0
2018-Jun-20 22:59N 54°38' W 008°27'0 0.0
2018-Jun-20 20:59N 54°38' W 008°27'0 0.0
2018-Jun-20 20:20N 54°38' W 008°27'0 0.0
2018-Jun-20 19:59N 54°38' W 008°27'0 0.0
2018-Jun-20 19:20N 54°38' W 008°27'0 0.0
2018-Jun-20 18:14N 54°38' W 008°27'0 0.0
2018-Jun-20 17:56N 54°38' W 008°27'0 0.0
2018-Jun-20 17:14N 54°38' W 008°27'0 0.0
2018-Jun-20 16:59N 54°38' W 008°27'0 0.0
2018-Jun-20 16:29N 54°38' W 008°27'  
2018-Jun-13 14:16N 55°11' W 007°01'1 3.7
2018-Jun-13 14:00N 55°12' W 006°59'0 0.1
2018-Jun-13 13:28N 55°12' W 006°59'0 0.0
2018-Jun-13 12:13N 55°12' W 006°59'0 0.0
2018-Jun-13 11:58N 55°12' W 006°59'0 0.0
2018-Jun-13 11:28N 55°12' W 006°59'0 0.0
2018-Jun-13 10:58N 55°12' W 006°59'0 0.0
2018-Jun-13 10:28N 55°12' W 006°59'0 0.0
2018-Jun-13 09:58N 55°12' W 006°59'0 0.0
2018-Jun-13 09:28N 55°12' W 006°59'0 0.7
2018-Jun-13 08:58N 55°12' W 006°59'1 2.6
2018-Jun-13 08:29N 55°12' W 006°57'31 0.7
2018-Jun-11 15:05N 55°32' W 006°14'  
Track history (hours):
 
Tides and Currents Weather Stations Pressure Air Temp Water Temp Dewpoint Dewpoint Depression Visibility Wind Speed Wind Dir Waves Ship Positions

Nemo

Last reported at 2018-Jun-21 10:03 UTC. Time now 2018-Jun-22 16:47 UTC.
Position N 54°38' W 008°26'.

Length 10 m.

Type: Pleasure craft. MMSI: 227530580.

Date/timePositionNaut miles runAvg speedWind from/ knotsBaromVisibWave heightAir tempDewpointWater temp
2018-Jun-21 10:03N 54°38' W 008°26'1 2.5
2018-Jun-21 09:48N 54°38' W 008°27'0 0.0
2018-Jun-21 09:18N 54°38' W 008°27'0 0.0
2018-Jun-21 08:48N 54°38' W 008°27'0 0.0
2018-Jun-21 08:30N 54°38' W 008°27'0 0.0
2018-Jun-21 08:00N 54°38' W 008°27'0 0.1
2018-Jun-21 07:29N 54°38' W 008°27'0 0.0
2018-Jun-21 06:59N 54°38' W 008°27'0 0.0
2018-Jun-21 06:29N 54°38' W 008°27'0 0.0
2018-Jun-21 05:59N 54°38' W 008°27'0 0.0
2018-Jun-21 05:24N 54°38' W 008°27'0 0.0
2018-Jun-21 04:59N 54°38' W 008°27'0 0.0
2018-Jun-21 04:29N 54°38' W 008°27'0 0.0
2018-Jun-21 03:41N 54°38' W 008°27'0 0.0
2018-Jun-21 03:29N 54°38' W 008°27'0 0.0
2018-Jun-21 02:53N 54°38' W 008°27'0 0.0
2018-Jun-21 02:29N 54°38' W 008°27'0 0.0
2018-Jun-21 01:59N 54°38' W 008°27'0 0.0
2018-Jun-21 01:29N 54°38' W 008°27'0 0.0
2018-Jun-21 00:53N 54°38' W 008°27'0 0.0
2018-Jun-21 00:17N 54°38' W 008°27'0 0.0
2018-Jun-20 23:41N 54°38' W 008°27'0 0.0
2018-Jun-20 23:17N 54°38' W 008°27'0 0.0
2018-Jun-20 22:59N 54°38' W 008°27'0 0.0
2018-Jun-20 20:59N 54°38' W 008°27'0 0.0
2018-Jun-20 20:20N 54°38' W 008°27'0 0.0
2018-Jun-20 19:59N 54°38' W 008°27'0 0.0
2018-Jun-20 19:20N 54°38' W 008°27'0 0.0
2018-Jun-20 18:14N 54°38' W 008°27'0 0.0
2018-Jun-20 17:56N 54°38' W 008°27'0 0.0
2018-Jun-20 17:14N 54°38' W 008°27'0 0.0
2018-Jun-20 16:59N 54°38' W 008°27'0 0.0
2018-Jun-20 16:29N 54°38' W 008°27'  
2018-Jun-13 14:16N 55°11' W 007°01'1 3.7
2018-Jun-13 14:00N 55°12' W 006°59'0 0.1
2018-Jun-13 13:28N 55°12' W 006°59'0 0.0
2018-Jun-13 12:13N 55°12' W 006°59'0 0.0
2018-Jun-13 11:58N 55°12' W 006°59'0 0.0
2018-Jun-13 11:28N 55°12' W 006°59'0 0.0
2018-Jun-13 10:58N 55°12' W 006°59'0 0.0
2018-Jun-13 10:28N 55°12' W 006°59'0 0.0
2018-Jun-13 09:58N 55°12' W 006°59'0 0.0
2018-Jun-13 09:28N 55°12' W 006°59'0 0.7
2018-Jun-13 08:58N 55°12' W 006°59'1 2.6
2018-Jun-13 08:29N 55°12' W 006°57'31 0.7
2018-Jun-11 15:05N 55°32' W 006°14'  

Dump ship's entire track history